createdAt,value
2023-05-20T00:00:15.815Z,87.24
2023-05-20T00:02:44.151Z,87.22
2023-05-20T00:05:14.230Z,87.11
2023-05-20T00:07:42.496Z,87.33
2023-05-20T00:10:12.218Z,87.16
2023-05-20T00:12:40.839Z,87.12
2023-05-20T00:15:13.204Z,87.57
2023-05-20T00:17:41.614Z,87.15
2023-05-20T00:20:10.747Z,87.11
2023-05-20T00:22:40.333Z,87.99
2023-05-20T00:25:09.748Z,87.76
2023-05-20T00:27:37.981Z,88.52
2023-05-20T00:30:07.975Z,87.77
2023-05-20T00:32:36.365Z,87.88
2023-05-20T00:35:05.589Z,87.93
2023-05-20T00:37:33.851Z,88.92
2023-05-20T00:40:09.865Z,88.26
2023-05-20T00:42:38.089Z,87.92
2023-05-20T00:45:07.539Z,88.60
2023-05-20T00:47:37.631Z,88.60
2023-05-20T00:50:07.313Z,88.21
2023-05-20T00:52:37.152Z,88.47
2023-05-20T00:55:07.548Z,89.12
2023-05-20T00:57:35.970Z,88.40
2023-05-20T01:00:09.224Z,88.47
2023-05-20T01:02:37.622Z,88.73
2023-05-20T01:05:06.996Z,88.73
2023-05-20T01:07:35.815Z,88.70
2023-05-20T01:10:04.697Z,88.20
2023-05-20T01:12:39.240Z,88.02
2023-05-20T01:15:11.343Z,88.25
2023-05-20T01:17:45.073Z,88.93
2023-05-20T01:20:15.820Z,89.52
2023-05-20T01:22:50.988Z,88.92
2023-05-20T01:25:19.340Z,89.54
2023-05-20T01:27:48.959Z,89.42
2023-05-20T01:30:18.062Z,89.96
2023-05-20T01:32:52.204Z,89.77
2023-05-20T01:35:21.780Z,90.11
2023-05-20T01:37:54.577Z,90.40
2023-05-20T01:40:24.836Z,90.66
2023-05-20T01:42:55.219Z,91.21
2023-05-20T01:45:25.662Z,90.62
2023-05-20T01:47:54.499Z,91.43
2023-05-20T01:50:23.032Z,90.64
2023-05-20T01:52:52.615Z,91.26
2023-05-20T01:55:21.072Z,90.64
2023-05-20T01:57:49.366Z,91.69
2023-05-20T02:00:18.062Z,91.29
2023-05-20T02:02:46.532Z,91.23
2023-05-20T02:05:15.083Z,91.40
2023-05-20T02:07:48.150Z,92.50
2023-05-20T02:10:18.004Z,92.94
2023-05-20T02:12:49.309Z,92.14
2023-05-20T02:15:17.775Z,92.94
2023-05-20T02:17:47.377Z,92.35
2023-05-20T02:20:16.566Z,92.80
2023-05-20T02:22:44.835Z,93.43
2023-05-20T02:25:13.612Z,92.67
2023-05-20T02:27:43.277Z,93.43
2023-05-20T02:30:12.167Z,92.58
2023-05-20T02:32:40.483Z,93.38
2023-05-20T02:35:09.439Z,93.57
2023-05-20T02:37:39.018Z,93.15
2023-05-20T02:40:10.364Z,93.65
2023-05-20T02:42:44.778Z,93.19
2023-05-20T02:45:13.118Z,92.69
2023-05-20T02:47:41.433Z,92.89
2023-05-20T02:50:10.244Z,93.63
2023-05-20T02:52:40.020Z,92.69
2023-05-20T02:55:09.609Z,93.47
2023-05-20T02:57:39.137Z,92.57
2023-05-20T03:00:12.127Z,93.07
2023-05-20T03:02:40.670Z,93.08
2023-05-20T03:05:10.917Z,92.90
2023-05-20T03:07:39.564Z,93.59
2023-05-20T03:10:10.709Z,93.54
2023-05-20T03:12:40.661Z,93.22
2023-05-20T03:15:12.740Z,93.84
2023-05-20T03:17:41.411Z,93.13
2023-05-20T03:20:12.824Z,93.64
2023-05-20T03:22:42.379Z,94.65
2023-05-20T03:25:11.737Z,94.05
2023-05-20T03:27:40.320Z,95.03
2023-05-20T03:30:12.654Z,95.39
2023-05-20T03:32:41.457Z,95.68
2023-05-20T03:35:10.360Z,95.97
2023-05-20T03:37:39.838Z,95.28
2023-05-20T03:40:10.464Z,95.42
2023-05-20T03:42:40.127Z,95.81
2023-05-20T03:45:11.961Z,96.08
2023-05-20T03:47:48.888Z,96.14
2023-05-20T03:50:19.272Z,96.56
2023-05-20T03:52:48.154Z,97.37
2023-05-20T03:55:20.495Z,98.05
2023-05-20T03:57:49.164Z,97.09
2023-05-20T04:00:19.172Z,96.93
2023-05-20T04:02:47.397Z,98.25
2023-05-20T04:05:44.690Z,97.70
2023-05-20T04:08:19.061Z,97.74
2023-05-20T04:10:48.011Z,98.66
2023-05-20T04:13:16.444Z,98.61
2023-05-20T04:15:51.674Z,98.59
2023-05-20T04:18:20.058Z,99.42
2023-05-20T04:20:48.889Z,98.82
2023-05-20T04:23:17.429Z,98.74
2023-05-20T04:25:46.126Z,99.80
2023-05-20T04:28:16.464Z,99.32
2023-05-20T04:30:45.236Z,99.43
2023-05-20T04:33:16.165Z,98.95
2023-05-20T04:35:45.010Z,98.69
2023-05-20T04:38:13.331Z,99.03
2023-05-20T04:40:41.860Z,99.52
2023-05-20T04:43:11.115Z,98.61
2023-05-20T04:45:40.387Z,99.36
2023-05-20T04:48:09.645Z,99.13
2023-05-20T04:50:40.521Z,99.74
2023-05-20T04:53:08.964Z,98.53
2023-05-20T04:55:39.093Z,98.52
2023-05-20T04:58:08.271Z,98.72
2023-05-20T05:00:36.787Z,97.58
2023-05-20T05:03:05.198Z,96.86
2023-05-20T05:05:34.119Z,97.03
2023-05-20T05:08:04.082Z,96.88
2023-05-20T05:10:33.294Z,97.25
2023-05-20T05:13:01.815Z,96.34
2023-05-20T05:15:30.689Z,95.80
2023-05-20T05:17:59.268Z,95.56
2023-05-20T05:20:27.590Z,95.07
2023-05-20T05:22:56.149Z,94.82
2023-05-20T05:25:26.151Z,94.67
2023-05-20T05:27:55.362Z,94.98
2023-05-20T05:30:24.894Z,95.00
2023-05-20T05:32:53.401Z,94.81
2023-05-20T05:35:21.961Z,94.70
2023-05-20T05:37:50.458Z,94.23
2023-05-20T05:40:19.040Z,93.78
2023-05-20T05:42:49.824Z,93.48
2023-05-20T05:45:18.328Z,93.29
2023-05-20T05:47:46.613Z,93.52
2023-05-20T05:50:15.984Z,93.04
2023-05-20T05:52:44.320Z,92.72
2023-05-20T05:55:13.795Z,92.93
2023-05-20T05:57:43.142Z,92.17
2023-05-20T06:00:18.224Z,91.71
2023-05-20T06:02:47.228Z,92.18
2023-05-20T06:05:31.400Z,91.32
2023-05-20T06:08:00.423Z,90.61
2023-05-20T06:10:28.794Z,90.69
2023-05-20T06:12:57.316Z,91.34
2023-05-20T06:15:27.803Z,90.45
2023-05-20T06:17:56.212Z,89.83
2023-05-20T06:20:24.883Z,90.08
2023-05-20T06:22:53.592Z,89.74
2023-05-20T06:25:23.133Z,89.56
2023-05-20T06:27:52.035Z,89.37
2023-05-20T06:30:21.509Z,88.84
2023-05-20T06:32:51.327Z,88.66
2023-05-20T06:35:20.366Z,89.06
2023-05-20T06:37:48.759Z,89.32
2023-05-20T06:40:18.201Z,87.85
2023-05-20T06:42:46.544Z,88.54
2023-05-20T06:45:15.187Z,88.44
2023-05-20T06:47:48.094Z,88.71
2023-05-20T06:50:18.098Z,88.29
2023-05-20T06:52:46.405Z,87.54
2023-05-20T06:55:15.918Z,87.39
2023-05-20T06:57:44.939Z,87.30
2023-05-20T07:00:15.227Z,87.19
2023-05-20T07:02:44.493Z,85.40
2023-05-20T07:05:14.435Z,85.99
2023-05-20T07:07:44.084Z,85.18
2023-05-20T07:10:12.758Z,84.58
2023-05-20T07:12:41.020Z,84.95
2023-05-20T07:15:10.672Z,83.76
2023-05-20T07:17:38.974Z,83.77
2023-05-20T07:20:09.171Z,83.04
2023-05-20T07:22:37.840Z,83.35
2023-05-20T07:25:14.434Z,82.33
2023-05-20T07:27:42.722Z,82.80
2023-05-20T07:30:11.738Z,83.75
2023-05-20T07:32:42.384Z,81.55
2023-05-20T07:35:10.880Z,79.54
2023-05-20T07:37:39.269Z,80.70
2023-05-20T07:40:10.008Z,79.24
2023-05-20T07:42:41.147Z,79.58
2023-05-20T07:45:11.813Z,81.44
2023-05-20T07:47:41.890Z,81.37
2023-05-20T07:50:11.075Z,79.50
2023-05-20T07:55:11.636Z,79.57
2023-05-20T07:57:43.588Z,78.47
2023-05-20T08:00:14.730Z,76.78
2023-05-20T08:02:46.421Z,77.27
2023-05-20T08:05:22.703Z,77.28
2023-05-20T08:07:50.995Z,76.71
2023-05-20T08:10:20.978Z,74.87
2023-05-20T08:12:50.814Z,77.36
2023-05-20T08:15:19.501Z,75.65
2023-05-20T08:17:48.929Z,76.17
2023-05-20T08:20:17.169Z,75.61
2023-05-20T08:22:45.576Z,76.44
2023-05-20T08:25:13.937Z,75.97
2023-05-20T08:27:42.251Z,76.19
2023-05-20T08:30:13.028Z,76.67
2023-05-20T08:32:41.324Z,75.75
2023-05-20T08:35:10.488Z,75.28
2023-05-20T08:37:38.831Z,75.77
2023-05-20T08:40:09.852Z,77.32
2023-05-20T08:42:42.365Z,74.30
2023-05-20T08:45:13.871Z,74.73
2023-05-20T08:47:44.169Z,75.41
2023-05-20T08:50:15.079Z,74.23
2023-05-20T08:52:45.986Z,74.37
2023-05-20T08:55:26.997Z,74.53
2023-05-20T08:57:56.088Z,74.21
2023-05-20T09:00:29.026Z,75.42
2023-05-20T09:03:00.749Z,74.69
2023-05-20T09:05:29.956Z,73.71
2023-05-20T09:08:07.858Z,73.98
2023-05-20T09:10:37.351Z,73.70
2023-05-20T09:13:06.789Z,74.22
2023-05-20T09:15:37.835Z,70.87
2023-05-20T09:18:09.216Z,72.45
2023-05-20T09:20:41.139Z,72.76
2023-05-20T09:23:11.282Z,74.15
2023-05-20T09:25:39.907Z,72.61
2023-05-20T09:28:09.372Z,71.58
2023-05-20T09:30:38.975Z,69.05
2023-05-20T09:33:09.343Z,69.35
2023-05-20T09:35:38.612Z,69.28
2023-05-20T09:38:08.539Z,70.03
2023-05-20T09:40:40.661Z,71.12
2023-05-20T09:43:11.397Z,66.86
2023-05-20T09:45:41.560Z,67.24
2023-05-20T09:48:13.101Z,69.56
2023-05-20T09:50:42.974Z,68.33
2023-05-20T09:53:13.233Z,68.16
2023-05-20T09:55:41.949Z,68.37
2023-05-20T09:58:16.239Z,66.58
2023-05-20T10:00:46.456Z,67.32
2023-05-20T10:03:15.026Z,67.57
2023-05-20T10:05:50.312Z,67.33
2023-05-20T10:08:44.181Z,67.20
2023-05-20T10:11:28.215Z,66.13
2023-05-20T10:14:20.227Z,67.00
2023-05-20T10:16:55.799Z,68.37
2023-05-20T10:19:30.978Z,63.86
2023-05-20T10:22:02.229Z,61.80
2023-05-20T10:24:35.069Z,64.05
2023-05-20T10:27:05.810Z,64.75
2023-05-20T10:29:45.544Z,65.65
2023-05-20T10:32:26.989Z,62.13
2023-05-20T10:35:01.963Z,64.26
2023-05-20T10:37:33.095Z,62.17
2023-05-20T10:40:09.384Z,61.70
2023-05-20T10:42:38.267Z,61.84
2023-05-20T10:45:08.603Z,63.01
2023-05-20T10:47:38.857Z,63.39
2023-05-20T10:50:08.436Z,61.37
2023-05-20T10:52:39.590Z,62.55
2023-05-20T10:55:09.483Z,62.95
2023-05-20T10:57:37.805Z,61.74
2023-05-20T11:00:10.791Z,61.25
2023-05-20T11:02:42.054Z,63.01
2023-05-20T11:05:14.617Z,60.67
2023-05-20T11:07:42.913Z,61.25
2023-05-20T11:10:12.128Z,63.32
2023-05-20T11:12:41.464Z,61.84
2023-05-20T11:15:13.755Z,61.35
2023-05-20T11:17:55.528Z,60.67
2023-05-20T11:20:24.920Z,60.93
2023-05-20T11:22:53.636Z,62.57
2023-05-20T11:25:23.302Z,61.71
2023-05-20T11:27:52.702Z,60.39
2023-05-20T11:30:21.570Z,59.97
2023-05-20T11:33:00.876Z,61.54
2023-05-20T11:35:32.273Z,60.08
2023-05-20T11:38:06.287Z,62.05
2023-05-20T11:40:46.297Z,59.88
2023-05-20T11:43:17.829Z,57.76
2023-05-20T11:45:49.253Z,59.59
2023-05-20T11:48:20.383Z,57.80
2023-05-20T11:50:49.644Z,58.22
2023-05-20T11:53:19.951Z,59.24
2023-05-20T11:55:52.149Z,60.44
2023-05-20T11:58:21.930Z,58.38
2023-05-20T12:00:55.148Z,58.26
2023-05-20T12:03:31.983Z,58.83
2023-05-20T12:06:04.493Z,58.44
2023-05-20T12:08:33.121Z,58.69
2023-05-20T12:11:01.348Z,57.98
2023-05-20T12:13:29.619Z,58.09
2023-05-20T12:15:57.953Z,58.63
2023-05-20T12:18:26.211Z,58.94
2023-05-20T12:20:55.843Z,57.88
2023-05-20T12:23:24.101Z,56.56
2023-05-20T12:25:52.399Z,58.14
2023-05-20T12:28:21.133Z,57.26
2023-05-20T12:30:49.408Z,56.62
2023-05-20T12:33:17.672Z,55.96
2023-05-20T12:35:46.798Z,55.73
2023-05-20T12:38:16.505Z,55.36
2023-05-20T12:40:44.774Z,55.87
2023-05-20T12:43:13.183Z,54.96
2023-05-20T12:45:41.470Z,56.10
2023-05-20T12:48:09.816Z,57.32
2023-05-20T12:50:38.266Z,55.44
2023-05-20T12:53:06.570Z,54.43
2023-05-20T12:55:36.264Z,56.65
2023-05-20T12:58:04.569Z,56.03
2023-05-20T13:00:32.940Z,55.37
2023-05-20T13:03:01.694Z,55.09
2023-05-20T13:05:30.090Z,56.50
2023-05-20T13:07:58.325Z,55.96
2023-05-20T13:10:26.949Z,55.28
2023-05-20T13:12:58.128Z,55.08
2023-05-20T13:15:26.425Z,57.15
2023-05-20T13:17:55.293Z,55.73
2023-05-20T13:20:23.722Z,56.63
2023-05-20T13:22:52.463Z,58.92
2023-05-20T13:25:20.813Z,56.82
2023-05-20T13:27:49.046Z,57.99
2023-05-20T13:30:18.846Z,57.93
2023-05-20T13:32:47.101Z,59.68
2023-05-20T13:35:16.853Z,59.16
2023-05-20T13:37:45.260Z,59.23
2023-05-20T13:40:14.528Z,58.07
2023-05-20T13:42:42.809Z,58.15
2023-05-20T13:45:12.338Z,58.02
2023-05-20T13:47:42.021Z,58.14
2023-05-20T13:50:12.024Z,57.77
2023-05-20T13:52:40.801Z,57.92
2023-05-20T13:55:09.918Z,57.94
2023-05-20T13:57:38.195Z,57.35
2023-05-20T14:00:08.477Z,57.98
2023-05-20T14:02:37.136Z,57.41
2023-05-20T14:05:08.605Z,56.75
2023-05-20T14:07:37.123Z,57.25
2023-05-20T14:10:06.904Z,57.40
2023-05-20T14:12:35.167Z,56.85
2023-05-20T14:15:03.497Z,57.91
2023-05-20T14:17:31.766Z,57.16
2023-05-20T14:20:00.750Z,56.59
2023-05-20T14:22:30.351Z,55.81
2023-05-20T14:24:59.188Z,57.38
2023-05-20T14:27:27.486Z,57.71
2023-05-20T14:29:55.803Z,58.20
2023-05-20T14:32:24.241Z,57.39
2023-05-20T14:34:53.806Z,56.63
2023-05-20T14:37:23.011Z,56.86
2023-05-20T14:39:52.548Z,56.53
2023-05-20T14:42:20.842Z,56.87
2023-05-20T14:44:49.773Z,57.66
2023-05-20T14:47:21.459Z,58.63
2023-05-20T14:49:50.550Z,58.56
2023-05-20T14:52:19.088Z,58.19
2023-05-20T14:54:47.861Z,58.85
2023-05-20T14:57:17.684Z,58.29
2023-05-20T14:59:46.199Z,59.23
2023-05-20T15:02:15.854Z,59.58
2023-05-20T15:04:46.303Z,60.18
2023-05-20T15:07:14.947Z,60.69
2023-05-20T15:09:43.753Z,62.23
2023-05-20T15:12:12.542Z,62.33
2023-05-20T15:14:42.290Z,61.70
2023-05-20T15:17:10.672Z,61.91
2023-05-20T15:19:41.385Z,61.59
2023-05-20T15:24:38.086Z,64.08
2023-05-20T15:27:06.902Z,63.67
2023-05-20T15:29:35.171Z,63.10
2023-05-20T15:32:05.336Z,62.34
2023-05-20T15:34:33.614Z,62.55
2023-05-20T15:37:01.929Z,62.82
2023-05-20T15:39:30.262Z,62.73
2023-05-20T15:41:59.577Z,61.67
2023-05-20T15:44:28.811Z,61.78
2023-05-20T15:46:57.218Z,62.25
2023-05-20T15:49:26.890Z,62.87
2023-05-20T15:52:03.040Z,63.33
2023-05-20T15:54:33.193Z,62.70
2023-05-20T15:57:02.583Z,63.68
2023-05-20T15:59:31.039Z,63.93
2023-05-20T16:02:00.036Z,63.66
2023-05-20T16:04:29.849Z,63.33
2023-05-20T16:06:58.497Z,63.11
2023-05-20T16:09:26.731Z,63.37
2023-05-20T16:11:56.105Z,62.73
2023-05-20T16:14:24.338Z,61.57
2023-05-20T16:16:52.676Z,61.16
2023-05-20T16:19:21.045Z,60.48
2023-05-20T16:21:50.860Z,60.26
2023-05-20T16:24:19.115Z,59.71
2023-05-20T16:26:47.328Z,59.42
2023-05-20T16:29:16.648Z,59.18
2023-05-20T16:31:46.845Z,58.18
2023-05-20T16:34:16.855Z,57.61
2023-05-20T16:36:46.387Z,58.11
2023-05-20T16:39:16.564Z,57.94
2023-05-20T16:41:45.087Z,58.36
2023-05-20T16:44:13.343Z,58.33
2023-05-20T16:46:47.695Z,59.21
2023-05-20T16:49:16.681Z,58.29
2023-05-20T16:51:45.021Z,58.56
2023-05-20T16:54:13.333Z,58.42
2023-05-20T16:56:42.927Z,58.83
2023-05-20T16:59:14.687Z,58.99
2023-05-20T17:01:42.992Z,58.82
2023-05-20T17:04:11.642Z,58.36
2023-05-20T17:06:40.023Z,59.16
2023-05-20T17:09:08.853Z,58.50
2023-05-20T17:11:37.209Z,58.74
2023-05-20T17:14:06.830Z,58.80
2023-05-20T17:16:35.747Z,58.72
2023-05-20T17:19:04.076Z,57.33
2023-05-20T17:21:32.392Z,57.90
2023-05-20T17:24:00.744Z,58.63
2023-05-20T17:26:29.071Z,58.98
2023-05-20T17:28:57.307Z,58.88
2023-05-20T17:31:26.948Z,59.05
2023-05-20T17:33:55.249Z,58.82
2023-05-20T17:36:23.750Z,59.38
2023-05-20T17:38:52.566Z,59.79
2023-05-20T17:41:21.804Z,60.08
2023-05-20T17:43:50.070Z,60.78
2023-05-20T17:46:18.383Z,60.88
2023-05-20T17:48:47.953Z,60.57
2023-05-20T17:51:16.940Z,60.33
2023-05-20T17:53:45.755Z,61.16
2023-05-20T17:56:14.576Z,61.34
2023-05-20T17:58:44.983Z,61.08
2023-05-20T18:01:13.341Z,61.54
2023-05-20T18:04:08.625Z,62.19
2023-05-20T18:06:37.874Z,61.81
2023-05-20T18:09:06.584Z,61.69
2023-05-20T18:11:36.014Z,62.88
2023-05-20T18:14:04.931Z,63.65
2023-05-20T18:16:33.362Z,63.65
2023-05-20T18:19:02.864Z,64.27
2023-05-20T18:21:32.645Z,63.61
2023-05-20T18:24:01.002Z,64.07
2023-05-20T18:26:29.210Z,63.56
2023-05-20T18:28:57.862Z,64.45
2023-05-20T18:31:26.411Z,64.58
2023-05-20T18:33:54.769Z,64.72
2023-05-20T18:36:23.064Z,64.54
2023-05-20T18:38:52.624Z,65.06
2023-05-20T18:41:22.208Z,64.68
2023-05-20T18:43:51.945Z,64.19
2023-05-20T18:46:20.238Z,64.78
2023-05-20T18:48:48.481Z,65.70
2023-05-20T18:51:16.719Z,65.04
2023-05-20T18:53:45.026Z,66.04
2023-05-20T18:56:14.774Z,65.83
2023-05-20T18:58:43.484Z,65.42
2023-05-20T19:01:11.734Z,66.01
2023-05-20T19:03:44.188Z,66.71
2023-05-20T19:06:13.830Z,67.25
2023-05-20T19:08:42.115Z,67.07
2023-05-20T19:11:10.533Z,67.27
2023-05-20T19:13:40.181Z,67.20
2023-05-20T19:16:08.902Z,67.87
2023-05-20T19:18:37.154Z,67.78
2023-05-20T19:21:05.658Z,68.15
2023-05-20T19:23:33.934Z,68.32
2023-05-20T19:26:02.238Z,69.37
2023-05-20T19:28:30.503Z,69.65
2023-05-20T19:31:00.155Z,69.94
2023-05-20T19:33:28.476Z,70.58
2023-05-20T19:35:57.749Z,70.98
2023-05-20T19:38:25.977Z,71.32
2023-05-20T19:40:54.202Z,71.79
2023-05-20T19:43:23.415Z,71.60
2023-05-20T19:45:51.708Z,72.54
2023-05-20T19:48:22.454Z,72.13
2023-05-20T19:50:50.761Z,72.45
2023-05-20T19:53:20.934Z,72.54
2023-05-20T19:55:49.335Z,72.39
2023-05-20T19:58:17.907Z,71.99
2023-05-20T20:00:46.167Z,72.43
2023-05-20T20:03:14.441Z,72.33
2023-05-20T20:05:44.201Z,72.48
2023-05-20T20:08:12.488Z,72.38
2023-05-20T20:10:40.808Z,73.51
2023-05-20T20:13:09.567Z,73.49
2023-05-20T20:15:37.951Z,73.43
2023-05-20T20:18:06.502Z,74.03
2023-05-20T20:20:39.807Z,74.77
2023-05-20T20:23:10.680Z,74.90
2023-05-20T20:25:41.213Z,75.69
2023-05-20T20:28:11.270Z,75.76
2023-05-20T20:30:39.464Z,75.90
2023-05-20T20:33:09.604Z,76.33
2023-05-20T20:35:38.539Z,76.53
2023-05-20T20:38:11.806Z,76.66
2023-05-20T20:40:41.642Z,76.51
2023-05-20T20:43:20.530Z,77.15
2023-05-20T20:45:50.758Z,77.27
2023-05-20T20:48:19.139Z,77.14
2023-05-20T20:50:48.237Z,77.25
2023-05-20T20:53:18.028Z,77.10
2023-05-20T20:55:47.118Z,76.75
2023-05-20T20:58:15.861Z,77.29
2023-05-20T21:00:45.791Z,76.96
2023-05-20T21:03:14.085Z,77.16
2023-05-20T21:05:42.305Z,77.45
2023-05-20T21:08:13.269Z,77.37
2023-05-20T21:10:42.963Z,77.14
2023-05-20T21:13:11.221Z,77.81
2023-05-20T21:15:39.446Z,77.22
2023-05-20T21:18:07.647Z,77.39
2023-05-20T21:20:35.835Z,77.72
2023-05-20T21:23:04.140Z,77.62
2023-05-20T21:25:32.411Z,77.57
2023-05-20T21:28:01.966Z,77.37
2023-05-20T21:30:30.397Z,77.25
2023-05-20T21:32:58.681Z,77.47
2023-05-20T21:35:27.009Z,78.08
2023-05-20T21:37:55.178Z,77.99
2023-05-20T21:40:23.503Z,77.98
2023-05-20T21:42:52.170Z,78.35
2023-05-20T21:45:21.829Z,78.57
2023-05-20T21:47:50.187Z,78.31
2023-05-20T21:50:18.399Z,78.52
2023-05-20T21:52:46.677Z,78.29
2023-05-20T21:55:15.023Z,78.40
2023-05-20T21:57:43.373Z,78.70
2023-05-20T22:00:15.196Z,79.22
2023-05-20T22:02:44.999Z,79.11
2023-05-20T22:05:13.472Z,78.67
2023-05-20T22:07:43.329Z,79.26
2023-05-20T22:10:13.671Z,79.40
2023-05-20T22:12:43.239Z,80.01
2023-05-20T22:15:12.627Z,80.02
2023-05-20T22:17:41.437Z,79.77
2023-05-20T22:20:13.482Z,79.47
2023-05-20T22:22:41.817Z,79.91
2023-05-20T22:25:11.226Z,80.46
2023-05-20T22:27:42.873Z,80.12
2023-05-20T22:30:12.580Z,79.99
2023-05-20T22:32:41.396Z,80.60
2023-05-20T22:35:13.081Z,80.13
2023-05-20T22:37:41.796Z,80.70
2023-05-20T22:40:11.746Z,80.41
2023-05-20T22:42:40.066Z,80.47
2023-05-20T22:45:10.101Z,80.69
2023-05-20T22:47:38.411Z,80.97
2023-05-20T22:50:08.793Z,81.01
2023-05-20T22:52:39.224Z,81.08
2023-05-20T22:55:08.987Z,80.95
2023-05-20T22:57:37.643Z,81.18
2023-05-20T23:00:08.182Z,80.77
2023-05-20T23:02:36.543Z,80.98
2023-05-20T23:05:08.855Z,81.50
2023-05-20T23:07:38.937Z,81.19
2023-05-20T23:10:08.407Z,81.71
2023-05-20T23:12:36.804Z,81.37
2023-05-20T23:15:05.589Z,82.00
2023-05-20T23:17:33.800Z,81.95
2023-05-20T23:20:09.890Z,81.42
2023-05-20T23:22:39.710Z,82.24
2023-05-20T23:25:09.328Z,81.74
2023-05-20T23:27:37.560Z,82.43
2023-05-20T23:30:08.726Z,82.32
2023-05-20T23:32:37.217Z,82.21
2023-05-20T23:35:06.745Z,82.52
2023-05-20T23:37:35.507Z,82.71
2023-05-20T23:40:06.559Z,81.99
2023-05-20T23:42:34.842Z,82.62
2023-05-20T23:45:04.638Z,83.05
2023-05-20T23:47:34.277Z,83.18
2023-05-20T23:50:02.525Z,82.64
2023-05-20T23:52:31.007Z,82.81
2023-05-20T23:55:00.204Z,83.46
2023-05-20T23:57:29.934Z,83.08
2023-05-20T23:59:58.157Z,83.75
